Time;durP1;ratioP1;P1;durP2;ratioP2;P2;SDS_P1;SDS_P2;PMS_P1;PMS_P2;Temp;Humidity;BMP_temperature;BMP_pressure;BME280_temperature;BME280_humidity;BME280_pressure;Samples;Min_cycle;Max_cycle;Signal;HPM_P1;HPM_P2
2021/01/29 00:00:37;;;;;;;;;;;9.50;99.90;;;;;;5056398;28;20003;-83
2021/01/29 00:03:04;;;;;;;;;;;9.50;99.90;;;;;;5054610;28;19944;-84
2021/01/29 00:05:32;;;;;;;;;;;9.50;99.90;;;;;;5058957;28;19916;-84
2021/01/29 00:07:58;;;;;;;;;;;9.50;99.90;;;;;;5057388;28;19952;-84
2021/01/29 00:10:23;;;;;;;;;;;9.50;99.90;;;;;;5058026;28;19956;-84
2021/01/29 00:12:49;;;;;;;;;;;9.50;99.90;;;;;;5056759;28;19924;-84
2021/01/29 00:15:19;;;;;;;;;;;9.50;99.90;;;;;;5058415;28;20346;-84
2021/01/29 00:17:44;;;;;;;;;;;9.50;99.90;;;;;;5036532;28;19920;-84
2021/01/29 00:20:11;;;;;;;;;;;9.50;99.90;;;;;;5055750;28;19948;-84
2021/01/29 00:22:36;;;;;;;;;;;9.50;99.90;;;;;;5055464;28;19913;-84
2021/01/29 00:25:04;;;;;;;;;;;9.50;99.90;;;;;;5056723;28;19924;-84
2021/01/29 00:27:30;;;;;;;;;;;9.50;99.90;;;;;;5056059;28;19958;-84
2021/01/29 00:29:55;;;;;;;;;;;9.50;99.90;;;;;;5040254;28;20011;-84
2021/01/29 00:32:21;;;;;;;;;;;9.50;99.90;;;;;;5039000;28;19920;-83
2021/01/29 00:34:46;;;;;;;;;;;9.50;99.90;;;;;;5039115;28;19913;-84
2021/01/29 00:37:12;;;;;;;;;;;9.50;99.90;;;;;;5057204;28;19917;-84
2021/01/29 00:39:37;;;;;;;;;;;9.50;99.90;;;;;;5057017;28;20309;-84
2021/01/29 00:42:03;;;;;;;;;;;9.60;99.90;;;;;;5039937;28;19913;-84
2021/01/29 00:44:28;;;;;;;;;;;9.60;99.90;;;;;;5068459;28;19909;-84
2021/01/29 00:46:53;;;;;;;;;;;9.60;99.90;;;;;;5061158;28;19927;-84
2021/01/29 00:49:19;;;;;;;;;;;9.60;99.90;;;;;;5037062;28;20381;-84
2021/01/29 00:51:44;;;;;;;;;;;9.60;99.90;;;;;;5057671;28;20365;-84
2021/01/29 00:54:10;;;;;;;;;;;9.60;99.90;;;;;;5064834;28;20266;-83
2021/01/29 00:56:35;;;;;;;;;;;9.50;99.90;;;;;;5054893;28;20281;-84
2021/01/29 00:59:01;;;;;;;;;;;9.60;99.90;;;;;;5039921;28;20370;-84
2021/01/29 01:01:26;;;;;;;;;;;9.50;99.90;;;;;;5051867;28;20004;-84
2021/01/29 01:03:51;;;;;;;;;;;9.50;99.90;;;;;;5048928;28;19913;-84
2021/01/29 01:06:17;;;;;;;;;;;9.50;99.90;;;;;;5054100;28;19913;-84
2021/01/29 01:08:42;;;;;;;;;;;9.50;99.90;;;;;;5039694;28;19915;-84
2021/01/29 01:11:08;;;;;;;;;;;9.50;99.90;;;;;;5058016;28;19913;-84
2021/01/29 01:13:33;;;;;;;;;;;9.50;99.90;;;;;;5055861;28;19932;-84
2021/01/29 01:15:58;;;;;;;;;;;9.40;99.90;;;;;;5057651;28;20277;-84
2021/01/29 01:18:24;;;;;;;;;;;9.40;99.90;;;;;;5055788;28;19964;-84
2021/01/29 01:20:49;;;;;;;;;;;9.40;99.90;;;;;;5076501;28;19913;-84
2021/01/29 01:23:15;;;;;;;;;;;9.40;99.90;;;;;;5061413;28;19943;-84
2021/01/29 01:25:40;;;;;;;;;;;9.40;99.90;;;;;;5055840;28;19917;-84
2021/01/29 01:28:06;;;;;;;;;;;9.40;99.90;;;;;;5063126;28;19996;-84
2021/01/29 01:30:34;;;;;;;;;;;9.40;99.90;;;;;;5051786;28;19920;-83
2021/01/29 01:32:59;;;;;;;;;;;9.40;99.90;;;;;;5053974;28;19919;-84
2021/01/29 01:35:25;;;;;;;;;;;9.40;99.90;;;;;;5065549;28;20357;-84
2021/01/29 01:37:50;;;;;;;;;;;9.30;99.90;;;;;;5043578;28;20335;-85
2021/01/29 01:40:18;;;;;;;;;;;9.30;99.90;;;;;;5056943;28;19931;-84
2021/01/29 01:42:43;;;;;;;;;;;9.30;99.90;;;;;;5056427;28;19912;-84
2021/01/29 01:45:27;;;;;;;;;;;9.20;99.90;;;;;;5056620;28;19951;-84
2021/01/29 01:47:55;;;;;;;;;;;9.20;99.90;;;;;;5055467;28;19917;-84
2021/01/29 01:50:29;;;;;;;;;;;9.30;99.90;;;;;;5057567;28;20296;-84
2021/01/29 01:52:55;;;;;;;;;;;9.30;99.90;;;;;;5055917;28;19913;-84
2021/01/29 01:55:22;;;;;;;;;;;9.30;99.90;;;;;;5059521;28;19912;-84
2021/01/29 01:57:52;;;;;;;;;;;9.20;99.90;;;;;;5068488;28;19920;-84
2021/01/29 02:00:20;;;;;;;;;;;9.30;99.90;;;;;;5053276;28;19913;-84
2021/01/29 02:02:47;;;;;;;;;;;9.20;99.90;;;;;;5052552;28;20292;-84
2021/01/29 02:05:18;;;;;;;;;;;9.20;99.90;;;;;;5052272;28;19924;-84
2021/01/29 02:07:46;;;;;;;;;;;9.20;99.90;;;;;;5045365;28;19913;-83
2021/01/29 02:10:12;;;;;;;;;;;9.10;99.90;;;;;;5063077;28;20457;-84
2021/01/29 02:12:37;;;;;;;;;;;9.10;99.90;;;;;;5068354;28;19913;-84
2021/01/29 02:15:10;;;;;;;;;;;9.10;99.90;;;;;;5075327;28;20645;-84
2021/01/29 02:17:52;;;;;;;;;;;9.00;99.90;;;;;;5066881;28;19909;-83
2021/01/29 02:20:31;;;;;;;;;;;9.00;99.90;;;;;;5052199;28;19913;-83
2021/01/29 02:23:12;;;;;;;;;;;9.00;99.90;;;;;;5052969;28;20293;-84
2021/01/29 02:25:43;;;;;;;;;;;9.00;99.90;;;;;;5034683;28;19921;-84
2021/01/29 02:28:21;;;;;;;;;;;9.00;99.90;;;;;;5053691;28;19950;-84
2021/01/29 02:30:50;;;;;;;;;;;8.90;99.90;;;;;;5050863;28;19912;-84
2021/01/29 02:33:52;;;;;;;;;;;9.00;99.90;;;;;;5051798;28;20083;-84
2021/01/29 02:36:17;;;;;;;;;;;9.00;99.90;;;;;;5054161;28;19909;-84
2021/01/29 02:38:52;;;;;;;;;;;9.00;99.90;;;;;;5057783;28;20007;-84
2021/01/29 02:41:24;;;;;;;;;;;9.00;99.90;;;;;;5054203;28;19912;-84
2021/01/29 02:44:08;;;;;;;;;;;9.00;99.90;;;;;;5054439;28;19955;-84
2021/01/29 02:46:40;;;;;;;;;;;9.00;99.90;;;;;;5035790;28;19913;-84
2021/01/29 02:49:18;;;;;;;;;;;9.00;99.90;;;;;;5036799;28;19913;-84
2021/01/29 02:51:49;;;;;;;;;;;9.00;99.90;;;;;;5053162;28;19956;-85
2021/01/29 02:54:20;;;;;;;;;;;9.00;99.90;;;;;;5050859;28;19920;-84
2021/01/29 02:56:52;;;;;;;;;;;9.00;99.90;;;;;;5051129;28;19966;-85
2021/01/29 02:59:27;;;;;;;;;;;9.00;99.90;;;;;;5043017;28;19919;-84
2021/01/29 03:01:56;;;;;;;;;;;9.00;99.90;;;;;;5058918;28;19912;-84
2021/01/29 03:04:24;;;;;;;;;;;9.00;99.90;;;;;;5043353;28;19913;-84
2021/01/29 03:06:56;;;;;;;;;;;9.00;99.90;;;;;;5068640;28;19917;-84
2021/01/29 03:09:25;;;;;;;;;;;9.00;99.90;;;;;;5060836;28;19970;-84
2021/01/29 03:12:06;;;;;;;;;;;9.00;99.90;;;;;;5070202;28;19921;-84
2021/01/29 03:14:44;;;;;;;;;;;9.10;99.90;;;;;;5052077;28;19912;-85
2021/01/29 03:17:09;;;;;;;;;;;9.10;99.90;;;;;;5054156;28;19913;-83
2021/01/29 03:19:41;;;;;;;;;;;9.10;99.90;;;;;;5045679;28;19920;-84
2021/01/29 03:22:28;;;;;;;;;;;9.10;99.90;;;;;;5056536;28;19938;-84
2021/01/29 03:24:55;;;;;;;;;;;9.10;99.90;;;;;;5054981;28;19923;-84
2021/01/29 03:27:26;;;;;;;;;;;9.10;99.90;;;;;;5056763;28;19909;-83
2021/01/29 03:29:56;;;;;;;;;;;9.10;99.90;;;;;;5059318;28;19924;-83
2021/01/29 03:32:23;;;;;;;;;;;9.10;99.90;;;;;;5058595;28;20015;-83
2021/01/29 03:35:02;;;;;;;;;;;9.20;99.90;;;;;;5064076;28;20471;-83
2021/01/29 03:37:33;;;;;;;;;;;9.20;99.90;;;;;;5064717;28;20331;-83
2021/01/29 03:39:58;;;;;;;;;;;9.20;99.90;;;;;;5058816;28;19913;-83
2021/01/29 03:42:42;;;;;;;;;;;9.20;99.90;;;;;;5055353;28;19919;-83
2021/01/29 03:45:08;;;;;;;;;;;9.20;99.90;;;;;;5071298;28;20296;-81
2021/01/29 03:47:34;;;;;;;;;;;9.20;99.90;;;;;;5062031;28;19913;-83
2021/01/29 03:50:06;;;;;;;;;;;9.20;99.90;;;;;;5069127;28;20368;-82
2021/01/29 03:52:50;;;;;;;;;;;9.20;99.90;;;;;;5058498;28;19939;-82
2021/01/29 03:55:17;;;;;;;;;;;9.20;99.90;;;;;;5055405;28;19951;-82
2021/01/29 03:58:01;;;;;;;;;;;9.30;99.90;;;;;;5054305;28;19913;-82
2021/01/29 04:00:36;;;;;;;;;;;9.30;99.90;;;;;;5068514;28;20002;-81
2021/01/29 04:03:07;;;;;;;;;;;9.30;99.90;;;;;;5053662;28;20539;-82
2021/01/29 04:05:39;;;;;;;;;;;9.30;99.90;;;;;;5063986;28;19924;-81
2021/01/29 04:08:11;;;;;;;;;;;9.30;99.90;;;;;;5056758;28;19946;-81
2021/01/29 04:10:37;;;;;;;;;;;9.30;99.90;;;;;;5054014;28;19912;-82
2021/01/29 04:13:06;;;;;;;;;;;9.30;99.90;;;;;;5055899;28;19913;-83
2021/01/29 04:15:35;;;;;;;;;;;9.30;99.90;;;;;;5063746;28;19917;-82
2021/01/29 04:18:10;;;;;;;;;;;9.40;99.90;;;;;;5041638;28;19913;-81
2021/01/29 04:20:50;;;;;;;;;;;9.40;99.90;;;;;;5046678;28;19913;-82
2021/01/29 04:23:34;;;;;;;;;;;9.40;99.90;;;;;;5053495;28;19948;-83
2021/01/29 04:26:03;;;;;;;;;;;9.40;99.90;;;;;;5017614;28;19917;-83
2021/01/29 04:28:30;;;;;;;;;;;9.40;99.90;;;;;;5034569;28;19909;-81
2021/01/29 04:30:58;;;;;;;;;;;9.40;99.90;;;;;;5047112;28;19920;-81
2021/01/29 04:33:26;;;;;;;;;;;9.40;99.90;;;;;;5051987;28;19913;-82
2021/01/29 04:35:53;;;;;;;;;;;9.40;99.90;;;;;;5051841;28;19982;-83
2021/01/29 04:38:27;;;;;;;;;;;9.40;99.90;;;;;;5043251;28;19912;-82
2021/01/29 04:40:57;;;;;;;;;;;9.40;99.90;;;;;;5055556;28;19909;-82
2021/01/29 04:43:40;;;;;;;;;;;9.40;99.90;;;;;;5052563;28;19939;-82
2021/01/29 04:46:26;;;;;;;;;;;9.40;99.90;;;;;;5054966;28;19913;-80
2021/01/29 04:49:05;;;;;;;;;;;9.40;99.90;;;;;;5053759;28;19916;-82
2021/01/29 04:52:00;;;;;;;;;;;9.40;99.90;;;;;;5056920;28;19913;-82
2021/01/29 04:54:41;;;;;;;;;;;9.40;99.90;;;;;;5057534;28;19912;-82
2021/01/29 04:57:09;;;;;;;;;;;9.40;99.90;;;;;;5040412;28;19920;-82
2021/01/29 04:59:43;;;;;;;;;;;9.40;99.90;;;;;;5057487;28;19913;-82
2021/01/29 05:02:17;;;;;;;;;;;9.40;99.90;;;;;;5056813;28;20284;-81
2021/01/29 05:05:01;;;;;;;;;;;9.40;99.90;;;;;;5059467;28;19913;-82
2021/01/29 05:07:30;;;;;;;;;;;9.40;99.90;;;;;;5042447;28;20296;-82
2021/01/29 05:10:01;;;;;;;;;;;9.40;99.90;;;;;;5052596;28;19913;-81
2021/01/29 05:12:47;;;;;;;;;;;9.40;99.90;;;;;;5055081;28;19960;-81
2021/01/29 05:15:34;;;;;;;;;;;9.40;99.90;;;;;;5056602;28;20364;-82
2021/01/29 05:18:16;;;;;;;;;;;9.40;99.90;;;;;;5056002;28;19913;-82
2021/01/29 05:20:41;;;;;;;;;;;9.40;99.90;;;;;;5057362;28;19950;-82
2021/01/29 05:23:25;;;;;;;;;;;9.40;99.90;;;;;;5058118;28;20337;-82
2021/01/29 05:26:11;;;;;;;;;;;9.40;99.90;;;;;;5038525;28;20008;-82
2021/01/29 05:28:43;;;;;;;;;;;9.40;99.90;;;;;;5040308;28;19920;-82
2021/01/29 05:31:30;;;;;;;;;;;9.40;99.90;;;;;;5055322;28;19919;-83
2021/01/29 05:34:01;;;;;;;;;;;9.40;99.90;;;;;;5057898;28;19913;-83
2021/01/29 05:36:30;;;;;;;;;;;9.40;99.90;;;;;;5060655;28;19915;-83
2021/01/29 05:39:14;;;;;;;;;;;9.30;99.90;;;;;;5039933;28;19967;-83
2021/01/29 05:41:39;;;;;;;;;;;9.40;99.90;;;;;;5060213;28;19913;-83
2021/01/29 05:44:11;;;;;;;;;;;9.40;99.90;;;;;;5056909;28;19969;-82
2021/01/29 05:46:51;;;;;;;;;;;9.40;99.90;;;;;;5059036;28;19967;-83
2021/01/29 05:49:24;;;;;;;;;;;9.40;99.90;;;;;;5057249;28;19969;-83
2021/01/29 05:51:53;;;;;;;;;;;9.40;99.90;;;;;;5057287;28;19947;-83
2021/01/29 05:54:33;;;;;;;;;;;9.40;99.90;;;;;;5057272;28;19935;-82
2021/01/29 05:57:19;;;;;;;;;;;9.40;99.90;;;;;;5058677;28;20282;-83
2021/01/29 06:00:08;;;;;;;;;;;9.40;99.90;;;;;;5009744;28;19920;-83
2021/01/29 06:02:39;;;;;;;;;;;9.50;99.90;;;;;;5058908;28;19917;-83
2021/01/29 06:05:18;;;;;;;;;;;9.50;99.90;;;;;;5063592;28;19943;-83
2021/01/29 06:07:47;;;;;;;;;;;9.40;99.90;;;;;;5068309;28;20006;-84
2021/01/29 06:10:23;;;;;;;;;;;9.40;99.90;;;;;;5059397;28;19912;-83
2021/01/29 06:12:52;;;;;;;;;;;9.40;99.90;;;;;;5059338;28;19964;-83
2021/01/29 06:15:47;;;;;;;;;;;9.40;99.90;;;;;;5039986;28;19947;-83
2021/01/29 06:18:27;;;;;;;;;;;9.40;99.90;;;;;;5021896;28;20004;-83
2021/01/29 06:20:59;;;;;;;;;;;9.30;99.90;;;;;;5060730;28;19909;-83
2021/01/29 06:23:45;;;;;;;;;;;9.30;99.90;;;;;;5058341;28;19916;-83
2021/01/29 06:26:13;;;;;;;;;;;9.30;99.90;;;;;;5059451;28;19916;-83
2021/01/29 06:29:00;;;;;;;;;;;9.30;99.90;;;;;;5059435;28;19917;-83
2021/01/29 06:31:37;;;;;;;;;;;9.30;99.90;;;;;;5018103;28;19968;-83
2021/01/29 06:34:12;;;;;;;;;;;9.30;99.90;;;;;;5055298;28;19917;-83
2021/01/29 06:36:41;;;;;;;;;;;9.30;99.90;;;;;;5038136;28;20389;-83
2021/01/29 06:39:25;;;;;;;;;;;9.30;99.90;;;;;;5055205;28;20297;-83
2021/01/29 06:42:04;;;;;;;;;;;9.30;99.90;;;;;;5055791;28;21369;-83
2021/01/29 06:44:48;;;;;;;;;;;9.30;99.90;;;;;;5055639;28;19920;-83
2021/01/29 06:47:13;;;;;;;;;;;9.30;99.90;;;;;;5048565;28;19917;-84
2021/01/29 06:49:51;;;;;;;;;;;9.40;99.90;;;;;;5042589;28;19913;-84
2021/01/29 06:52:29;;;;;;;;;;;9.40;99.90;;;;;;5060178;28;19913;-83
2021/01/29 06:54:57;;;;;;;;;;;9.40;99.90;;;;;;5058629;28;19913;-83
2021/01/29 06:57:42;;;;;;;;;;;9.40;99.90;;;;;;5058666;28;19991;-83
2021/01/29 07:00:26;;;;;;;;;;;9.40;99.90;;;;;;5060543;28;19927;-83
2021/01/29 07:03:12;;;;;;;;;;;9.40;99.90;;;;;;5063974;28;19909;-83
2021/01/29 07:05:56;;;;;;;;;;;9.50;99.90;;;;;;5004280;28;19921;-84
2021/01/29 07:08:40;;;;;;;;;;;9.50;99.90;;;;;;5062398;28;19932;-84
2021/01/29 07:11:24;;;;;;;;;;;9.50;99.90;;;;;;5046010;28;19908;-83
2021/01/29 07:13:50;;;;;;;;;;;9.50;99.90;;;;;;5058609;28;19913;-83
2021/01/29 07:16:21;;;;;;;;;;;9.50;99.90;;;;;;5060922;28;19919;-83
2021/01/29 07:18:47;;;;;;;;;;;9.50;99.90;;;;;;5024441;28;19920;-83
2021/01/29 07:21:21;;;;;;;;;;;9.50;99.90;;;;;;5056005;28;19913;-84
2021/01/29 07:24:05;;;;;;;;;;;9.50;99.90;;;;;;5059646;28;20384;-83
2021/01/29 07:26:39;;;;;;;;;;;9.50;99.90;;;;;;5058581;28;19924;-83
2021/01/29 07:29:23;;;;;;;;;;;9.50;99.90;;;;;;5059275;28;19964;-83
2021/01/29 07:31:55;;;;;;;;;;;9.50;99.90;;;;;;5058515;28;19919;-83
2021/01/29 07:34:26;;;;;;;;;;;9.50;99.90;;;;;;5030940;28;19920;-83
2021/01/29 07:36:58;;;;;;;;;;;9.40;99.90;;;;;;5057489;28;19977;-83
2021/01/29 07:39:42;;;;;;;;;;;9.40;99.90;;;;;;5061616;28;19913;-84
2021/01/29 07:42:32;;;;;;;;;;;9.40;99.90;;;;;;5060099;28;20381;-83
2021/01/29 07:45:13;;;;;;;;;;;9.40;99.90;;;;;;5056153;28;19913;-83
2021/01/29 07:47:57;;;;;;;;;;;9.40;99.90;;;;;;5052821;28;19984;-83
2021/01/29 07:50:26;;;;;;;;;;;9.40;99.90;;;;;;5054010;28;19920;-83
2021/01/29 07:53:00;;;;;;;;;;;9.40;99.90;;;;;;5055733;28;20305;-83
2021/01/29 07:55:26;;;;;;;;;;;9.40;99.90;;;;;;5054024;28;19912;-83
2021/01/29 07:57:51;;;;;;;;;;;9.40;99.90;;;;;;5056300;28;19970;-83
2021/01/29 08:00:17;;;;;;;;;;;9.50;99.90;;;;;;5060007;28;19917;-83
2021/01/29 08:02:42;;;;;;;;;;;9.50;99.90;;;;;;5062913;28;19956;-83
2021/01/29 08:05:18;;;;;;;;;;;9.50;99.90;;;;;;5058752;28;19924;-83
2021/01/29 08:07:48;;;;;;;;;;;9.60;99.90;;;;;;5057415;28;19916;-83
2021/01/29 08:10:31;;;;;;;;;;;9.60;99.90;;;;;;5057978;28;20003;-83
2021/01/29 08:13:13;;;;;;;;;;;9.60;99.90;;;;;;5057484;28;19909;-83
2021/01/29 08:15:52;;;;;;;;;;;9.70;99.90;;;;;;5051389;28;20289;-83
2021/01/29 08:18:28;;;;;;;;;;;9.70;99.90;;;;;;5058157;28;19909;-83
2021/01/29 08:21:12;;;;;;;;;;;9.70;99.90;;;;;;5057469;28;20353;-83
2021/01/29 08:23:46;;;;;;;;;;;9.80;99.90;;;;;;5058799;28;19917;-83
2021/01/29 08:26:34;;;;;;;;;;;9.80;99.90;;;;;;5062636;28;19917;-83
2021/01/29 08:29:06;;;;;;;;;;;9.80;99.90;;;;;;5045117;28;19913;-84
2021/01/29 08:31:43;;;;;;;;;;;9.80;99.90;;;;;;5045337;28;19917;-83
2021/01/29 08:34:15;;;;;;;;;;;9.80;99.90;;;;;;5062476;28;19913;-83
2021/01/29 08:36:59;;;;;;;;;;;9.80;99.90;;;;;;5062251;28;19919;-81
2021/01/29 08:39:28;;;;;;;;;;;9.80;99.90;;;;;;5043138;28;19959;-82
2021/01/29 08:42:05;;;;;;;;;;;9.80;99.90;;;;;;5059409;28;19913;-82
2021/01/29 08:44:49;;;;;;;;;;;9.80;99.90;;;;;;5042957;28;19909;-82
2021/01/29 08:47:30;;;;;;;;;;;9.80;99.90;;;;;;5059687;28;20360;-82
2021/01/29 08:50:14;;;;;;;;;;;9.90;99.90;;;;;;5030534;28;19921;-82
2021/01/29 08:52:39;;;;;;;;;;;9.90;99.90;;;;;;5052948;28;19913;-81
2021/01/29 08:55:08;;;;;;;;;;;9.90;99.90;;;;;;5042909;28;19915;-82
2021/01/29 08:57:43;;;;;;;;;;;9.90;99.90;;;;;;5059926;28;19920;-82
2021/01/29 09:00:19;;;;;;;;;;;9.90;99.90;;;;;;5061646;28;20467;-81
2021/01/29 09:02:53;;;;;;;;;;;9.90;99.90;;;;;;5060411;28;20054;-82
2021/01/29 09:05:20;;;;;;;;;;;9.90;99.90;;;;;;5051569;28;19917;-81
2021/01/29 09:07:46;;;;;;;;;;;9.90;99.90;;;;;;5045172;28;20301;-81
2021/01/29 09:10:19;;;;;;;;;;;10.00;99.90;;;;;;5048606;28;19917;-81
2021/01/29 09:12:45;;;;;;;;;;;10.00;99.90;;;;;;5055067;28;20003;-81
2021/01/29 09:15:16;;;;;;;;;;;10.10;99.90;;;;;;5070204;28;19920;-81
2021/01/29 09:17:45;;;;;;;;;;;10.20;99.90;;;;;;5075321;28;20398;-82
2021/01/29 09:20:11;;;;;;;;;;;10.20;99.90;;;;;;5045321;28;20219;-81
2021/01/29 09:23:16;;;;;;;;;;;10.30;99.90;;;;;;5045362;28;19913;-81
2021/01/29 09:25:46;;;;;;;;;;;10.30;99.90;;;;;;4972259;28;19933;-81
2021/01/29 09:28:38;;;;;;;;;;;10.30;99.90;;;;;;4984062;28;19953;-81
2021/01/29 09:31:21;;;;;;;;;;;10.50;99.90;;;;;;4997646;28;19917;-81
2021/01/29 09:33:48;;;;;;;;;;;10.60;99.90;;;;;;5055437;28;19920;-81
2021/01/29 09:36:19;;;;;;;;;;;10.70;99.90;;;;;;5053773;28;19967;-81
2021/01/29 09:38:50;;;;;;;;;;;10.70;99.90;;;;;;5036490;28;20438;-81
2021/01/29 09:41:21;;;;;;;;;;;10.70;99.90;;;;;;5054965;28;20361;-81
2021/01/29 09:43:50;;;;;;;;;;;10.80;99.90;;;;;;5054229;28;19916;-81
2021/01/29 09:46:40;;;;;;;;;;;10.90;99.90;;;;;;5032840;28;20294;-80
2021/01/29 09:49:06;;;;;;;;;;;11.00;99.90;;;;;;5052737;28;19913;-81
2021/01/29 09:51:34;;;;;;;;;;;11.20;99.90;;;;;;5034918;28;19920;-81
2021/01/29 09:54:35;;;;;;;;;;;11.30;99.90;;;;;;5034758;28;20385;-81
2021/01/29 09:57:03;;;;;;;;;;;11.50;99.90;;;;;;4948560;28;19926;-80
2021/01/29 09:59:47;;;;;;;;;;;11.70;99.90;;;;;;5025505;28;19917;-81
2021/01/29 10:02:19;;;;;;;;;;;11.80;99.90;;;;;;5049830;28;19913;-81
2021/01/29 10:05:00;;;;;;;;;;;12.00;99.90;;;;;;5051544;28;19912;-80
2021/01/29 10:07:26;;;;;;;;;;;12.30;99.90;;;;;;5054615;28;20377;-81
2021/01/29 10:10:02;;;;;;;;;;;12.60;99.90;;;;;;5053466;28;20317;-80
2021/01/29 10:12:28;;;;;;;;;;;12.90;99.90;;;;;;5036568;28;20377;-81
2021/01/29 10:14:57;;;;;;;;;;;13.00;99.90;;;;;;5043857;28;19916;-80
2021/01/29 10:17:28;;;;;;;;;;;13.00;99.90;;;;;;5054442;28;19913;-81
2021/01/29 10:19:53;;;;;;;;;;;12.90;99.90;;;;;;5057193;28;20325;-80
2021/01/29 10:22:25;;;;;;;;;;;12.70;99.90;;;;;;5053946;28;19998;-80
2021/01/29 10:25:02;;;;;;;;;;;12.60;99.90;;;;;;5056781;28;19924;-80
2021/01/29 10:27:31;;;;;;;;;;;12.70;99.90;;;;;;5051872;28;19913;-80
2021/01/29 10:30:19;;;;;;;;;;;12.70;99.90;;;;;;5070200;28;19916;-81
2021/01/29 10:33:06;;;;;;;;;;;12.40;99.90;;;;;;5052533;28;20396;-80
2021/01/29 10:35:35;;;;;;;;;;;12.10;99.90;;;;;;5055303;28;19923;-82
2021/01/29 10:38:03;;;;;;;;;;;12.00;99.90;;;;;;5044572;28;20379;-82
2021/01/29 10:40:33;;;;;;;;;;;12.10;99.90;;;;;;5043314;28;19990;-82
2021/01/29 10:43:01;;;;;;;;;;;12.30;99.90;;;;;;5045616;28;19952;-82
2021/01/29 10:45:32;;;;;;;;;;;12.40;99.90;;;;;;5054973;28;20385;-83
2021/01/29 10:48:00;;;;;;;;;;;12.50;99.90;;;;;;5036401;28;20695;-82
2021/01/29 10:50:28;;;;;;;;;;;12.60;99.90;;;;;;5058100;28;19944;-83
2021/01/29 10:53:20;;;;;;;;;;;12.60;99.90;;;;;;5055969;28;19913;-82
2021/01/29 10:56:05;;;;;;;;;;;12.50;99.90;;;;;;5054073;28;19932;-83
2021/01/29 10:58:45;;;;;;;;;;;12.30;99.90;;;;;;5047925;28;19913;-82
2021/01/29 11:01:21;;;;;;;;;;;12.10;99.90;;;;;;5034300;28;19916;-82
2021/01/29 11:03:56;;;;;;;;;;;12.00;99.90;;;;;;5052691;28;19952;-82
2021/01/29 11:06:28;;;;;;;;;;;11.90;99.90;;;;;;5046609;28;19920;-82
2021/01/29 11:08:56;;;;;;;;;;;11.90;99.90;;;;;;5052839;28;20008;-84
2021/01/29 11:11:32;;;;;;;;;;;11.80;99.90;;;;;;5044393;28;20285;-82
2021/01/29 11:14:20;;;;;;;;;;;11.70;99.90;;;;;;5044617;28;19912;-82
2021/01/29 11:16:48;;;;;;;;;;;11.70;99.90;;;;;;5054725;28;19916;-82
2021/01/29 11:19:18;;;;;;;;;;;11.60;99.90;;;;;;5039069;28;19913;-82
2021/01/29 11:22:02;;;;;;;;;;;11.60;99.90;;;;;;5051450;28;19912;-82
2021/01/29 11:24:37;;;;;;;;;;;11.50;99.90;;;;;;5034278;28;19917;-82
2021/01/29 11:27:06;;;;;;;;;;;11.60;99.90;;;;;;5037963;28;19950;-82
2021/01/29 11:29:41;;;;;;;;;;;11.60;99.90;;;;;;5040024;28;19920;-82
2021/01/29 11:32:25;;;;;;;;;;;11.90;99.90;;;;;;5030428;28;20004;-81
2021/01/29 11:34:55;;;;;;;;;;;12.30;99.90;;;;;;5051843;28;20097;-82
2021/01/29 11:37:30;;;;;;;;;;;12.50;99.90;;;;;;5048431;28;19913;-82
2021/01/29 11:40:11;;;;;;;;;;;12.80;99.90;;;;;;5031921;28;20304;-82
2021/01/29 11:42:41;;;;;;;;;;;13.20;99.90;;;;;;5018450;28;19966;-82
2021/01/29 11:45:11;;;;;;;;;;;13.50;99.90;;;;;;5046848;28;20292;-82
2021/01/29 11:47:40;;;;;;;;;;;14.50;99.90;;;;;;5036840;28;19917;-83
2021/01/29 11:50:13;;;;;;;;;;;15.50;99.90;;;;;;5048873;28;19913;-83
2021/01/29 11:52:41;;;;;;;;;;;17.00;99.90;;;;;;5055851;28;19956;-83
2021/01/29 11:55:10;;;;;;;;;;;18.30;99.90;;;;;;5057669;28;20023;-83
2021/01/29 11:57:55;;;;;;;;;;;19.60;99.90;;;;;;5058037;28;20491;-83
2021/01/29 12:00:33;;;;;;;;;;;20.50;99.90;;;;;;5043432;28;19920;-82
2021/01/29 12:03:04;;;;;;;;;;;20.30;99.90;;;;;;5046523;28;19919;-82
2021/01/29 12:05:34;;;;;;;;;;;19.20;99.90;;;;;;5047783;28;19916;-82
2021/01/29 12:08:06;;;;;;;;;;;18.10;99.90;;;;;;5059538;28;19916;-82
2021/01/29 12:10:34;;;;;;;;;;;17.10;99.90;;;;;;5034447;28;20003;-82
2021/01/29 12:13:18;;;;;;;;;;;16.30;99.90;;;;;;5054189;28;19934;-82
2021/01/29 12:15:48;;;;;;;;;;;15.80;99.90;;;;;;5057977;28;20011;-82
2021/01/29 12:18:15;;;;;;;;;;;15.60;99.90;;;;;;5055951;28;19917;-82
2021/01/29 12:20:42;;;;;;;;;;;15.30;99.90;;;;;;5058667;28;19921;-82
2021/01/29 12:23:10;;;;;;;;;;;15.00;99.90;;;;;;5057763;28;19969;-82
2021/01/29 12:25:49;;;;;;;;;;;14.80;99.90;;;;;;5055096;28;19924;-82
2021/01/29 12:28:15;;;;;;;;;;;14.50;99.90;;;;;;5046748;28;19921;-82
2021/01/29 12:30:45;;;;;;;;;;;14.20;99.90;;;;;;5057742;28;20397;-82
2021/01/29 12:33:17;;;;;;;;;;;14.40;99.90;;;;;;5055879;28;19913;-82
2021/01/29 12:35:49;;;;;;;;;;;14.90;99.90;;;;;;5059963;28;19912;-82
2021/01/29 12:38:15;;;;;;;;;;;15.40;99.90;;;;;;5053411;28;19909;-82
2021/01/29 12:40:46;;;;;;;;;;;16.20;99.90;;;;;;5062417;28;19912;-82
2021/01/29 12:43:15;;;;;;;;;;;16.80;99.90;;;;;;5061401;28;19913;-82
2021/01/29 12:45:42;;;;;;;;;;;16.70;99.90;;;;;;5058697;28;20322;-82
2021/01/29 12:48:24;;;;;;;;;;;16.30;99.90;;;;;;5044575;28;20489;-82
2021/01/29 12:51:00;;;;;;;;;;;15.90;99.90;;;;;;5059229;28;19944;-82
2021/01/29 12:53:35;;;;;;;;;;;15.40;99.90;;;;;;5051077;28;19963;-82
2021/01/29 12:56:03;;;;;;;;;;;15.30;99.90;;;;;;5053694;28;19982;-81
2021/01/29 12:58:29;;;;;;;;;;;15.80;99.90;;;;;;5051007;28;19913;-80
2021/01/29 13:01:00;;;;;;;;;;;16.20;99.90;;;;;;5052777;28;20369;-80
2021/01/29 13:03:31;;;;;;;;;;;16.90;99.90;;;;;;5053950;28;19913;-80
2021/01/29 13:06:09;;;;;;;;;;;17.00;99.90;;;;;;5048879;28;19966;-81
2021/01/29 13:08:34;;;;;;;;;;;16.60;99.90;;;;;;5057738;28;20270;-81
2021/01/29 13:11:20;;;;;;;;;;;15.80;99.90;;;;;;5056144;28;19913;-81
2021/01/29 13:14:04;;;;;;;;;;;15.10;99.90;;;;;;5029532;28;19944;-81
2021/01/29 13:16:42;;;;;;;;;;;14.50;99.90;;;;;;5041376;28;19908;-81
2021/01/29 13:19:19;;;;;;;;;;;14.00;99.90;;;;;;5058163;28;19908;-81
2021/01/29 13:21:50;;;;;;;;;;;13.60;99.90;;;;;;5053846;28;19913;-81
2021/01/29 13:24:26;;;;;;;;;;;13.20;99.90;;;;;;5047434;28;19916;-81
2021/01/29 13:26:52;;;;;;;;;;;12.90;99.90;;;;;;5056032;28;19917;-80
2021/01/29 13:29:22;;;;;;;;;;;12.60;99.90;;;;;;5045128;28;19913;-80
2021/01/29 13:31:48;;;;;;;;;;;12.40;99.90;;;;;;5054131;28;19913;-81
2021/01/29 13:34:16;;;;;;;;;;;12.30;99.90;;;;;;5056561;28;19919;-80
2021/01/29 13:36:56;;;;;;;;;;;12.20;99.90;;;;;;5050236;28;19912;-80
2021/01/29 13:39:23;;;;;;;;;;;12.10;99.90;;;;;;5057300;28;19960;-80
2021/01/29 13:42:02;;;;;;;;;;;12.00;99.90;;;;;;5066102;28;19912;-81
2021/01/29 13:44:47;;;;;;;;;;;12.00;99.90;;;;;;5059848;28;19909;-82
2021/01/29 13:47:25;;;;;;;;;;;12.00;99.90;;;;;;5060705;28;19917;-81
2021/01/29 13:49:51;;;;;;;;;;;12.00;99.90;;;;;;5060853;28;19917;-80
2021/01/29 13:52:33;;;;;;;;;;;12.00;99.90;;;;;;5055685;28;19912;-80
2021/01/29 13:55:17;;;;;;;;;;;11.90;99.90;;;;;;5059218;28;19912;-81
2021/01/29 13:57:51;;;;;;;;;;;11.90;99.90;;;;;;5038472;28;19913;-81
2021/01/29 14:00:18;;;;;;;;;;;11.80;99.90;;;;;;5058366;28;19921;-81
2021/01/29 14:02:48;;;;;;;;;;;11.60;99.90;;;;;;5058461;28;19909;-81
2021/01/29 14:05:16;;;;;;;;;;;11.40;99.90;;;;;;5040382;28;20301;-81
2021/01/29 14:07:43;;;;;;;;;;;11.30;99.90;;;;;;5050294;28;20046;-80
2021/01/29 14:10:10;;;;;;;;;;;11.20;99.90;;;;;;5054852;28;19913;-81
2021/01/29 14:12:38;;;;;;;;;;;11.20;99.90;;;;;;5038458;28;19917;-80
2021/01/29 14:15:04;;;;;;;;;;;11.10;99.90;;;;;;5039918;28;19912;-81
2021/01/29 14:17:41;;;;;;;;;;;11.20;99.90;;;;;;5059017;28;19913;-81
2021/01/29 14:20:06;;;;;;;;;;;11.20;99.90;;;;;;5058797;28;19913;-81
2021/01/29 14:22:38;;;;;;;;;;;11.20;99.90;;;;;;5050557;28;19913;-79
2021/01/29 14:25:10;;;;;;;;;;;11.40;99.90;;;;;;5040212;28;19978;-80
2021/01/29 14:27:56;;;;;;;;;;;11.60;99.90;;;;;;5059425;28;19913;-81
2021/01/29 14:30:30;;;;;;;;;;;12.00;99.90;;;;;;5058799;28;20011;-81
2021/01/29 14:33:11;;;;;;;;;;;12.10;99.90;;;;;;5056140;28;19919;-81
2021/01/29 14:35:43;;;;;;;;;;;12.10;99.90;;;;;;5057675;28;20007;-81
2021/01/29 14:38:17;;;;;;;;;;;11.90;99.90;;;;;;5030046;28;19958;-81
2021/01/29 14:41:01;;;;;;;;;;;11.80;99.90;;;;;;5054763;28;19936;-80
2021/01/29 14:43:26;;;;;;;;;;;11.60;99.90;;;;;;5045015;28;19912;-81
2021/01/29 14:46:18;;;;;;;;;;;11.50;99.90;;;;;;5057427;28;19917;-81
2021/01/29 14:49:02;;;;;;;;;;;11.30;99.90;;;;;;5036271;28;19912;-81
2021/01/29 14:51:36;;;;;;;;;;;11.10;99.90;;;;;;5047245;28;19917;-81
2021/01/29 14:54:13;;;;;;;;;;;10.80;99.90;;;;;;5044957;28;19917;-81
2021/01/29 14:56:41;;;;;;;;;;;10.60;99.90;;;;;;5056052;28;19966;-81
2021/01/29 14:59:11;;;;;;;;;;;10.40;99.90;;;;;;5038476;28;19984;-81
2021/01/29 15:01:39;;;;;;;;;;;10.30;99.90;;;;;;5047283;28;19919;-81